createdAt,value
2022-11-13T00:01:16.492Z,20.50
2022-11-13T00:04:04.856Z,20.50
2022-11-13T00:06:58.788Z,20.40
2022-11-13T00:09:50.540Z,20.40
2022-11-13T00:12:38.748Z,20.40
2022-11-13T00:15:27.350Z,20.40
2022-11-13T00:18:15.610Z,20.40
2022-11-13T00:21:28.489Z,20.40
2022-11-13T00:24:16.843Z,20.40
2022-11-13T00:27:05.238Z,20.40
2022-11-13T00:29:53.600Z,20.40
2022-11-13T00:32:41.802Z,20.40
2022-11-13T00:35:29.955Z,20.40
2022-11-13T00:38:21.043Z,20.40
2022-11-13T00:41:09.392Z,20.40
2022-11-13T00:43:57.569Z,20.40
2022-11-13T00:46:46.124Z,20.40
2022-11-13T00:49:34.586Z,20.40
2022-11-13T00:52:22.898Z,20.40
2022-11-13T00:55:11.229Z,20.40
2022-11-13T00:57:59.315Z,20.40
2022-11-13T01:00:48.592Z,20.40
2022-11-13T01:03:37.279Z,20.40
2022-11-13T01:06:27.116Z,20.40
2022-11-13T01:09:17.889Z,20.40
2022-11-13T01:12:06.761Z,20.40
2022-11-13T01:14:55.175Z,20.40
2022-11-13T01:17:43.295Z,20.40
2022-11-13T01:20:31.576Z,20.40
2022-11-13T01:23:22.576Z,20.40
2022-11-13T01:26:21.930Z,20.40
2022-11-13T01:29:13.780Z,20.40
2022-11-13T01:32:02.260Z,20.40
2022-11-13T01:34:50.724Z,20.40
2022-11-13T01:37:45.073Z,20.40
2022-11-13T01:40:33.691Z,20.40
2022-11-13T01:43:35.935Z,20.40
2022-11-13T01:46:34.126Z,20.40
2022-11-13T01:49:49.243Z,20.50
2022-11-13T01:52:39.147Z,20.50
2022-11-13T01:55:29.774Z,20.50
2022-11-13T01:58:17.945Z,20.50
2022-11-13T02:01:18.768Z,20.50
2022-11-13T02:04:07.161Z,20.50
2022-11-13T02:06:56.946Z,20.50
2022-11-13T02:09:46.565Z,20.60
2022-11-13T02:12:40.797Z,20.60
2022-11-13T02:15:29.253Z,20.60
2022-11-13T02:18:17.571Z,20.60
2022-11-13T02:21:15.636Z,20.60
2022-11-13T02:24:22.901Z,20.70
2022-11-13T02:27:16.492Z,20.80
2022-11-13T02:30:34.890Z,20.70
2022-11-13T02:33:30.548Z,20.80
2022-11-13T02:36:18.976Z,20.80
2022-11-13T02:39:11.082Z,20.90
2022-11-13T02:41:59.630Z,20.90
2022-11-13T02:44:47.834Z,20.90
2022-11-13T02:47:41.933Z,21.00
2022-11-13T02:50:35.776Z,21.00
2022-11-13T02:53:23.823Z,21.00
2022-11-13T02:56:12.195Z,21.00
2022-11-13T02:59:00.364Z,21.10
2022-11-13T03:01:49.294Z,21.00
2022-11-13T03:05:10.128Z,21.10
2022-11-13T03:07:54.099Z,21.10
2022-11-13T03:10:42.505Z,21.10
2022-11-13T03:13:30.829Z,21.10
2022-11-13T03:16:21.917Z,21.10
2022-11-13T03:19:10.409Z,21.20
2022-11-13T03:21:58.652Z,21.20
2022-11-13T03:24:52.974Z,21.20
2022-11-13T03:27:45.214Z,21.20
2022-11-13T03:30:33.534Z,21.30
2022-11-13T03:33:28.038Z,21.30
2022-11-13T03:36:18.678Z,21.30
2022-11-13T03:39:13.424Z,21.40
2022-11-13T03:42:01.963Z,21.30
2022-11-13T03:44:50.273Z,21.30
2022-11-13T03:47:41.461Z,21.40
2022-11-13T03:50:45.479Z,21.30
2022-11-13T03:53:38.061Z,21.40
2022-11-13T03:56:29.798Z,21.40
2022-11-13T03:59:18.370Z,21.40
2022-11-13T04:02:07.751Z,21.40
2022-11-13T04:04:56.320Z,21.50
2022-11-13T04:07:47.576Z,21.50
2022-11-13T04:10:36.215Z,21.50
2022-11-13T04:13:27.345Z,21.50
2022-11-13T04:16:15.943Z,21.50
2022-11-13T04:19:04.163Z,21.50
2022-11-13T04:21:52.488Z,21.50
2022-11-13T04:24:40.988Z,21.50
2022-11-13T04:27:29.622Z,21.50
2022-11-13T04:30:17.690Z,21.50
2022-11-13T04:33:12.046Z,21.50
2022-11-13T04:36:00.741Z,21.50
2022-11-13T04:38:48.805Z,21.50
2022-11-13T04:41:55.767Z,21.50
2022-11-13T04:44:49.898Z,21.50
2022-11-13T04:47:44.247Z,21.50
2022-11-13T04:50:35.471Z,21.50
2022-11-13T04:53:25.458Z,21.60
2022-11-13T04:56:14.054Z,21.50
2022-11-13T04:59:02.332Z,21.60
2022-11-13T05:02:02.385Z,21.50
2022-11-13T05:04:53.105Z,21.60
2022-11-13T05:07:41.579Z,21.50
2022-11-13T05:10:35.920Z,21.60
2022-11-13T05:13:27.341Z,21.60
2022-11-13T05:16:16.630Z,21.50
2022-11-13T05:19:08.162Z,21.50
2022-11-13T05:21:59.742Z,21.50
2022-11-13T05:24:51.392Z,21.50
2022-11-13T05:27:41.674Z,21.50
2022-11-13T05:30:36.022Z,21.50
2022-11-13T05:33:30.130Z,21.50
2022-11-13T05:36:25.208Z,21.50
2022-11-13T05:39:15.658Z,21.50
2022-11-13T05:42:09.511Z,21.50
2022-11-13T05:44:58.001Z,21.50
2022-11-13T05:47:58.458Z,21.50
2022-11-13T05:50:53.042Z,21.50
2022-11-13T05:53:55.723Z,21.50
2022-11-13T05:56:46.641Z,21.50
2022-11-13T05:59:37.741Z,21.50
2022-11-13T06:02:31.919Z,21.50
2022-11-13T06:05:23.285Z,21.50
2022-11-13T06:08:11.735Z,21.50
2022-11-13T06:11:11.026Z,21.50
2022-11-13T06:14:03.425Z,21.50
2022-11-13T06:16:54.930Z,21.50
2022-11-13T06:19:49.780Z,21.50
2022-11-13T06:22:39.915Z,21.50
2022-11-13T06:25:30.031Z,21.50
2022-11-13T06:28:24.290Z,21.50
2022-11-13T06:31:20.976Z,21.50
2022-11-13T06:34:09.773Z,21.50
2022-11-13T06:37:04.506Z,21.50
2022-11-13T06:39:53.985Z,21.50
2022-11-13T06:42:44.913Z,21.50
2022-11-13T06:45:33.348Z,21.50
2022-11-13T06:48:23.097Z,21.50
2022-11-13T06:51:16.611Z,21.50
2022-11-13T06:54:05.531Z,21.40
2022-11-13T06:57:00.008Z,21.50
2022-11-13T06:59:51.359Z,21.50
2022-11-13T07:02:46.125Z,21.40
2022-11-13T07:05:40.174Z,21.50
2022-11-13T07:08:29.051Z,21.40
2022-11-13T07:11:22.772Z,21.50
2022-11-13T07:14:14.912Z,21.40
2022-11-13T07:17:09.712Z,21.40
2022-11-13T07:19:58.932Z,21.50
2022-11-13T07:22:47.415Z,21.40
2022-11-13T07:25:35.778Z,21.40
2022-11-13T07:28:24.009Z,21.40
2022-11-13T07:31:12.785Z,21.40
2022-11-13T07:34:01.065Z,21.40
2022-11-13T07:36:49.520Z,21.40
2022-11-13T07:39:37.737Z,21.40
2022-11-13T07:42:32.054Z,21.40
2022-11-13T07:45:20.147Z,21.40
2022-11-13T07:48:08.530Z,21.30
2022-11-13T07:50:56.693Z,21.40
2022-11-13T07:53:45.396Z,21.40
2022-11-13T07:56:33.580Z,21.40
2022-11-13T07:59:21.769Z,21.40
2022-11-13T08:02:19.294Z,21.40
2022-11-13T08:05:09.862Z,21.40
2022-11-13T08:07:58.272Z,21.40
2022-11-13T08:10:46.597Z,21.40
2022-11-13T08:13:35.550Z,21.40
2022-11-13T08:16:24.725Z,21.40
2022-11-13T08:19:13.626Z,21.40
2022-11-13T08:22:05.549Z,21.40
2022-11-13T08:24:57.716Z,21.40
2022-11-13T08:27:49.689Z,21.40
2022-11-13T08:30:37.892Z,21.40
2022-11-13T08:33:26.616Z,21.50
2022-11-13T08:36:15.177Z,21.40
2022-11-13T08:39:03.435Z,21.40
2022-11-13T08:41:51.653Z,21.40
2022-11-13T08:44:39.790Z,21.40
2022-11-13T08:47:29.821Z,21.40
2022-11-13T08:50:18.470Z,21.40
2022-11-13T08:53:06.820Z,21.30
2022-11-13T08:55:55.424Z,21.30
2022-11-13T08:58:43.551Z,21.30
2022-11-13T09:01:31.807Z,21.30
2022-11-13T09:04:20.207Z,21.30
2022-11-13T09:07:08.580Z,21.30
2022-11-13T09:09:56.725Z,21.30
2022-11-13T09:12:45.062Z,21.30
2022-11-13T09:15:35.177Z,21.30
2022-11-13T09:18:23.503Z,21.30
2022-11-13T09:21:12.278Z,21.30
2022-11-13T09:24:00.477Z,21.30
2022-11-13T09:26:48.543Z,21.30
2022-11-13T09:29:37.331Z,21.30
2022-11-13T09:32:31.984Z,21.30
2022-11-13T09:35:35.044Z,21.30
2022-11-13T09:38:26.254Z,21.30
2022-11-13T09:41:18.890Z,21.30
2022-11-13T09:44:19.337Z,21.20
2022-11-13T09:47:25.261Z,21.30
2022-11-13T09:50:21.424Z,21.20
2022-11-13T09:53:11.843Z,21.20
2022-11-13T09:56:15.504Z,21.20
2022-11-13T09:59:22.858Z,21.30
2022-11-13T10:02:10.988Z,21.20
2022-11-13T10:05:13.161Z,21.20
2022-11-13T10:08:29.859Z,21.20
2022-11-13T10:11:48.220Z,21.20
2022-11-13T10:14:37.715Z,21.20
2022-11-13T10:17:56.548Z,21.20
2022-11-13T10:21:21.027Z,21.20
2022-11-13T10:24:33.379Z,21.20
2022-11-13T10:27:21.718Z,21.20
2022-11-13T10:30:17.513Z,21.20
2022-11-13T10:33:09.655Z,21.20
2022-11-13T10:36:05.886Z,21.20
2022-11-13T10:39:03.589Z,21.10
2022-11-13T10:41:53.612Z,21.20
2022-11-13T10:44:42.310Z,21.10
2022-11-13T10:50:41.446Z,21.20
2022-11-13T10:53:35.107Z,21.10
2022-11-13T10:56:30.560Z,21.10
2022-11-13T10:59:20.302Z,21.10
2022-11-13T11:02:21.790Z,21.10
2022-11-13T11:05:20.674Z,21.10
2022-11-13T11:08:11.511Z,21.10
2022-11-13T11:11:22.047Z,21.10
2022-11-13T11:14:15.843Z,21.10
2022-11-13T11:17:04.359Z,21.10
2022-11-13T11:19:57.326Z,21.10
2022-11-13T11:22:47.463Z,21.10
2022-11-13T11:25:44.870Z,21.10
2022-11-13T11:28:51.877Z,21.10
2022-11-13T11:31:43.866Z,21.10
2022-11-13T11:34:41.545Z,21.10
2022-11-13T11:37:32.955Z,21.10
2022-11-13T11:40:31.401Z,21.10
2022-11-13T11:43:53.389Z,21.10
2022-11-13T11:46:46.434Z,21.10
2022-11-13T11:49:34.930Z,21.10
2022-11-13T11:53:02.163Z,21.10
2022-11-13T11:56:18.073Z,21.10
2022-11-13T11:59:24.861Z,21.00
2022-11-13T12:02:34.420Z,21.00
2022-11-13T12:05:45.243Z,21.10
2022-11-13T12:09:03.993Z,21.00
2022-11-13T12:12:02.233Z,21.10
2022-11-13T12:15:00.561Z,21.00
2022-11-13T12:17:51.908Z,21.00
2022-11-13T12:20:49.312Z,21.00
2022-11-13T12:23:54.804Z,21.00
2022-11-13T12:27:07.063Z,21.00
2022-11-13T12:30:05.562Z,21.00
2022-11-13T12:33:08.363Z,21.00
2022-11-13T12:35:56.606Z,21.00
2022-11-13T12:39:06.748Z,21.00
2022-11-13T12:42:00.624Z,21.00
2022-11-13T12:45:01.814Z,21.00
2022-11-13T12:47:53.456Z,21.00
2022-11-13T12:50:42.006Z,21.00
2022-11-13T12:53:32.418Z,21.00
2022-11-13T12:56:30.515Z,21.00
2022-11-13T12:59:30.775Z,21.00
2022-11-13T13:02:43.793Z,21.00
2022-11-13T13:05:51.291Z,21.00
2022-11-13T13:08:56.256Z,21.00
2022-11-13T13:11:54.097Z,21.00
2022-11-13T13:15:02.859Z,21.00
2022-11-13T13:17:57.508Z,21.00
2022-11-13T13:21:00.141Z,21.00
2022-11-13T13:23:50.465Z,21.00
2022-11-13T13:26:47.125Z,21.00
2022-11-13T13:29:35.219Z,21.00
2022-11-13T13:32:55.746Z,21.00
2022-11-13T13:35:44.045Z,21.00
2022-11-13T13:38:38.745Z,21.00
2022-11-13T13:41:45.460Z,21.00
2022-11-13T13:44:51.055Z,21.00
2022-11-13T13:47:41.618Z,21.00
2022-11-13T13:50:34.193Z,20.90
2022-11-13T13:53:35.867Z,21.00
2022-11-13T13:56:24.599Z,20.90
2022-11-13T13:59:50.384Z,20.90
2022-11-13T14:02:47.530Z,20.90
2022-11-13T14:05:36.411Z,20.90
2022-11-13T14:08:30.180Z,20.90
2022-11-13T14:11:30.677Z,20.90
2022-11-13T14:14:21.362Z,20.90
2022-11-13T14:17:14.016Z,20.90
2022-11-13T14:20:02.657Z,20.90
2022-11-13T14:22:56.459Z,20.90
2022-11-13T14:25:45.220Z,20.90
2022-11-13T14:28:35.380Z,20.90
2022-11-13T14:31:31.710Z,20.90
2022-11-13T14:34:21.864Z,20.90
2022-11-13T14:37:16.464Z,20.90
2022-11-13T14:40:07.445Z,20.90
2022-11-13T14:43:00.148Z,20.80
2022-11-13T14:46:24.024Z,20.90
2022-11-13T14:49:16.821Z,20.90
2022-11-13T14:52:05.326Z,20.80
2022-11-13T14:55:15.251Z,20.80
2022-11-13T14:58:03.928Z,20.90
2022-11-13T15:00:52.017Z,20.80
2022-11-13T15:03:40.604Z,20.80
2022-11-13T15:06:35.985Z,20.80
2022-11-13T15:09:27.834Z,20.80
2022-11-13T15:12:16.700Z,20.80
2022-11-13T15:15:05.164Z,20.80
2022-11-13T15:17:53.647Z,20.80
2022-11-13T15:20:41.822Z,20.80
2022-11-13T15:23:30.580Z,20.80
2022-11-13T15:26:21.932Z,20.80
2022-11-13T15:29:10.311Z,20.80
2022-11-13T15:32:01.732Z,20.80
2022-11-13T15:34:50.030Z,20.80
2022-11-13T15:37:38.185Z,20.80
2022-11-13T15:40:26.374Z,20.80
2022-11-13T15:43:20.654Z,20.80
2022-11-13T15:46:15.924Z,20.80
2022-11-13T15:49:04.219Z,20.80
2022-11-13T15:51:52.452Z,20.80
2022-11-13T15:54:40.829Z,20.80
2022-11-13T15:57:35.180Z,20.80
2022-11-13T16:00:28.507Z,20.80
2022-11-13T16:03:17.142Z,20.80
2022-11-13T16:06:05.560Z,20.80
2022-11-13T16:08:53.909Z,20.70
2022-11-13T16:11:44.812Z,20.70
2022-11-13T16:14:33.590Z,20.70
2022-11-13T16:17:22.198Z,20.70
2022-11-13T16:20:17.962Z,20.70
2022-11-13T16:23:13.626Z,20.80
2022-11-13T16:26:05.617Z,20.70
2022-11-13T16:32:03.790Z,20.70
2022-11-13T16:34:52.348Z,20.70
2022-11-13T16:37:42.373Z,20.70
2022-11-13T16:40:34.324Z,20.70
2022-11-13T16:43:24.373Z,20.70
2022-11-13T16:46:25.173Z,20.70
2022-11-13T16:49:22.244Z,20.70
2022-11-13T16:52:10.069Z,20.70
2022-11-13T16:55:02.211Z,20.70
2022-11-13T16:57:53.774Z,20.70
2022-11-13T17:00:41.979Z,20.70
2022-11-13T17:03:30.692Z,20.70
2022-11-13T17:06:30.000Z,20.60
2022-11-13T17:09:23.954Z,20.70
2022-11-13T17:12:16.149Z,20.60
2022-11-13T17:15:05.758Z,20.60
2022-11-13T17:17:54.666Z,20.70
2022-11-13T17:20:43.062Z,20.60
2022-11-13T17:23:31.804Z,20.70
2022-11-13T17:26:21.911Z,20.70
2022-11-13T17:29:10.022Z,20.60
2022-11-13T17:31:58.261Z,20.60
2022-11-13T17:34:46.321Z,20.60
2022-11-13T17:37:46.859Z,20.60
2022-11-13T17:40:35.110Z,20.60
2022-11-13T17:43:23.710Z,20.60
2022-11-13T17:46:17.109Z,20.60
2022-11-13T17:49:05.608Z,20.60
2022-11-13T17:51:53.944Z,20.60
2022-11-13T17:54:42.582Z,20.60
2022-11-13T17:57:31.433Z,20.60
2022-11-13T18:00:20.375Z,20.60
2022-11-13T18:03:09.240Z,20.60
2022-11-13T18:05:57.707Z,20.60
2022-11-13T18:08:46.864Z,20.60
2022-11-13T18:11:36.405Z,20.60
2022-11-13T18:14:27.501Z,20.60
2022-11-13T18:17:16.014Z,20.60
2022-11-13T18:20:04.178Z,20.60
2022-11-13T18:22:52.817Z,20.60
2022-11-13T18:25:41.404Z,20.60
2022-11-13T18:28:29.871Z,20.60
2022-11-13T18:31:19.513Z,20.60
2022-11-13T18:34:09.170Z,20.60
2022-11-13T18:36:57.751Z,20.50
2022-11-13T18:39:46.100Z,20.50
2022-11-13T18:42:34.736Z,20.60
2022-11-13T18:45:26.065Z,20.50
2022-11-13T18:48:14.035Z,20.50
2022-11-13T18:51:29.739Z,20.50
2022-11-13T18:54:18.488Z,20.60
2022-11-13T18:57:06.744Z,20.50
2022-11-13T18:59:54.952Z,20.50
2022-11-13T19:02:43.355Z,20.50
2022-11-13T19:05:34.472Z,20.50
2022-11-13T19:08:23.054Z,20.50
2022-11-13T19:11:16.879Z,20.50
2022-11-13T19:14:05.607Z,20.50
2022-11-13T19:16:53.777Z,20.50
2022-11-13T19:19:46.606Z,20.50
2022-11-13T19:22:34.820Z,20.50
2022-11-13T19:25:23.315Z,20.50
2022-11-13T19:28:14.540Z,20.50
2022-11-13T19:31:07.555Z,20.50
2022-11-13T19:34:00.733Z,20.50
2022-11-13T19:36:50.677Z,20.50
2022-11-13T19:39:39.479Z,20.50
2022-11-13T19:42:28.024Z,20.50
2022-11-13T19:45:19.107Z,20.50
2022-11-13T19:48:07.385Z,20.50
2022-11-13T19:50:55.631Z,20.50
2022-11-13T19:53:51.598Z,20.50
2022-11-13T19:56:42.098Z,20.50
2022-11-13T19:59:30.389Z,20.50
2022-11-13T20:02:18.797Z,20.50
2022-11-13T20:05:08.237Z,20.50
2022-11-13T20:07:59.556Z,20.50
2022-11-13T20:10:47.670Z,20.50
2022-11-13T20:13:37.794Z,20.50
2022-11-13T20:16:29.453Z,20.50
2022-11-13T20:19:17.819Z,20.50
2022-11-13T20:22:06.605Z,20.50
2022-11-13T20:24:56.236Z,20.50
2022-11-13T20:27:47.350Z,20.50
2022-11-13T20:30:39.095Z,20.40
2022-11-13T20:33:33.294Z,20.50
2022-11-13T20:36:22.238Z,20.50
2022-11-13T20:39:13.839Z,20.50
2022-11-13T20:42:02.132Z,20.40
2022-11-13T20:44:50.741Z,20.40
2022-11-13T20:47:38.939Z,20.40
2022-11-13T20:50:28.002Z,20.40
2022-11-13T20:53:16.341Z,20.40
2022-11-13T20:56:04.772Z,20.50
2022-11-13T20:58:53.874Z,20.40
2022-11-13T21:01:42.534Z,20.40
2022-11-13T21:04:31.119Z,20.40
2022-11-13T21:07:25.490Z,20.40
2022-11-13T21:10:14.992Z,20.40
2022-11-13T21:13:05.773Z,20.40
2022-11-13T21:15:54.659Z,20.40
2022-11-13T21:18:46.031Z,20.40
2022-11-13T21:21:34.182Z,20.40
2022-11-13T21:24:24.008Z,20.40
2022-11-13T21:27:15.005Z,20.40
2022-11-13T21:30:03.502Z,20.40
2022-11-13T21:32:51.623Z,20.40
2022-11-13T21:35:39.904Z,20.40
2022-11-13T21:38:34.215Z,20.40
2022-11-13T21:41:23.803Z,20.30
2022-11-13T21:44:12.144Z,20.30
2022-11-13T21:47:05.294Z,20.30
2022-11-13T21:49:53.391Z,20.30
2022-11-13T21:52:43.098Z,20.30
2022-11-13T21:55:31.507Z,20.30
2022-11-13T21:58:19.871Z,20.30
2022-11-13T22:01:09.302Z,20.30
2022-11-13T22:03:57.500Z,20.30
2022-11-13T22:06:49.332Z,20.30
2022-11-13T22:09:38.292Z,20.30
2022-11-13T22:12:26.515Z,20.30
2022-11-13T22:15:20.710Z,20.30
2022-11-13T22:18:09.124Z,20.30
2022-11-13T22:21:05.573Z,20.30
2022-11-13T22:23:56.181Z,20.30
2022-11-13T22:26:46.653Z,20.30
2022-11-13T22:29:37.620Z,20.30
2022-11-13T22:32:26.030Z,20.30
2022-11-13T22:35:14.438Z,20.30
2022-11-13T22:38:04.302Z,20.30
2022-11-13T22:40:52.565Z,20.30
2022-11-13T22:43:50.273Z,20.30
2022-11-13T22:46:41.837Z,20.20
2022-11-13T22:49:30.221Z,20.20
2022-11-13T22:52:21.259Z,20.20
2022-11-13T22:55:16.115Z,20.20
2022-11-13T22:58:04.785Z,20.20
2022-11-13T23:00:53.021Z,20.30
2022-11-13T23:03:48.681Z,20.20
2022-11-13T23:06:37.555Z,20.20
2022-11-13T23:09:29.839Z,20.30
2022-11-13T23:12:18.200Z,20.30
2022-11-13T23:15:07.236Z,20.20
2022-11-13T23:17:55.673Z,20.20
2022-11-13T23:20:44.924Z,20.20
2022-11-13T23:23:33.958Z,20.20
2022-11-13T23:26:22.114Z,20.20
2022-11-13T23:29:10.341Z,20.20
2022-11-13T23:32:04.457Z,20.20
2022-11-13T23:35:01.386Z,20.20
2022-11-13T23:37:49.844Z,20.20
2022-11-13T23:40:50.447Z,20.20
2022-11-13T23:47:03.956Z,20.20
2022-11-13T23:49:58.522Z,20.20
2022-11-13T23:52:52.620Z,20.20
2022-11-13T23:55:43.840Z,20.20
2022-11-13T23:58:32.707Z,20.20
